Time;durP1;ratioP1;P1;durP2;ratioP2;P2;SDS_P1;SDS_P2;PMS_P1;PMS_P2;Temp;Humidity;BMP_temperature;BMP_pressure;BME280_temperature;BME280_humidity;BME280_pressure;Samples;Min_cycle;Max_cycle;Signal;HPM_P1;HPM_P2
2023/10/31 00:00:17;;;;;;;22.03;13.60;;;9.00;99.90;8.20;98922;;;;568242;252;24164;-76
2023/10/31 00:02:45;;;;;;;22.00;14.03;;;9.00;99.90;8.20;98919;;;;559982;252;24138;-77
2023/10/31 00:05:13;;;;;;;22.07;13.57;;;9.00;99.90;8.30;98920;;;;568327;252;24088;-79
2023/10/31 00:07:42;;;;;;;28.63;15.63;;;9.10;99.90;8.30;98922;;;;568237;252;24126;-77
2023/10/31 00:10:11;;;;;;;23.30;14.10;;;9.10;99.90;8.30;98933;;;;568064;252;24200;-77
2023/10/31 00:12:39;;;;;;;19.70;12.43;;;9.10;99.90;8.30;98935;;;;568565;252;24199;-77
2023/10/31 00:15:06;;;;;;;25.30;14.13;;;9.10;99.90;8.30;98938;;;;568526;252;24161;-77
2023/10/31 00:17:34;;;;;;;24.07;14.43;;;9.10;99.90;8.40;98929;;;;568539;252;24094;-76
2023/10/31 00:20:03;;;;;;;23.97;14.87;;;9.20;99.90;8.40;98926;;;;568220;252;24119;-75
2023/10/31 00:22:30;;;;;;;28.50;14.47;;;9.20;99.90;8.40;98915;;;;567944;252;24137;-77
2023/10/31 00:24:58;;;;;;;22.47;14.57;;;9.20;99.90;8.50;98911;;;;568486;252;24155;-77
2023/10/31 00:27:26;;;;;;;22.23;13.60;;;9.20;99.90;8.50;98895;;;;568498;252;24125;-76
2023/10/31 00:29:54;;;;;;;30.40;13.77;;;9.30;99.90;8.50;98899;;;;569189;250;24193;-76
2023/10/31 00:32:22;;;;;;;20.90;13.33;;;9.30;99.90;8.60;98896;;;;569712;252;24108;-78
2023/10/31 00:34:49;;;;;;;33.10;14.70;;;9.30;99.90;8.50;98890;;;;569512;252;24127;-76
2023/10/31 00:37:17;;;;;;;21.40;12.47;;;9.30;99.90;8.60;98887;;;;569314;252;24134;-76
2023/10/31 00:39:46;;;;;;;22.70;13.10;;;9.40;99.90;8.60;98887;;;;569175;252;24094;-76
2023/10/31 00:42:14;;;;;;;20.57;13.47;;;9.40;99.90;8.60;98882;;;;569052;252;24106;-76
2023/10/31 00:44:42;;;;;;;22.70;13.93;;;9.40;99.90;8.60;98884;;;;569135;252;24094;-77
2023/10/31 00:47:10;;;;;;;22.13;14.30;;;9.40;99.90;8.60;98874;;;;569051;252;24113;-75
2023/10/31 00:49:38;;;;;;;23.13;14.20;;;9.40;99.90;8.60;98856;;;;568835;252;24134;-77
2023/10/31 00:52:06;;;;;;;22.30;14.33;;;9.40;99.90;8.60;98855;;;;568374;252;24080;-78
2023/10/31 00:54:34;;;;;;;21.80;14.07;;;9.40;99.90;8.60;98849;;;;568493;252;24166;-77
2023/10/31 00:57:02;;;;;;;22.53;12.17;;;9.40;99.90;8.60;98853;;;;568760;252;24095;-78
2023/10/31 00:59:30;;;;;;;20.57;12.53;;;9.40;99.90;8.60;98855;;;;568825;252;24115;-76
2023/10/31 01:01:59;;;;;;;24.43;12.97;;;9.40;99.90;8.60;98849;;;;568614;252;24131;-76
2023/10/31 01:04:27;;;;;;;30.27;12.97;;;9.40;99.90;8.60;98841;;;;568894;252;24099;-77
2023/10/31 01:06:55;;;;;;;26.83;14.43;;;9.40;99.90;8.60;98832;;;;569287;252;24143;-78
2023/10/31 01:09:23;;;;;;;22.70;13.60;;;9.50;99.90;8.70;98832;;;;569255;252;24131;-79
2023/10/31 01:11:50;;;;;;;21.10;13.57;;;9.50;99.90;8.70;98828;;;;569848;252;24110;-81
2023/10/31 01:14:18;;;;;;;24.10;13.47;;;9.50;99.90;8.70;98825;;;;561380;252;24130;-77
2023/10/31 01:16:46;;;;;;;19.03;13.53;;;9.50;99.90;8.70;98821;;;;569228;252;24150;-78
2023/10/31 01:19:14;;;;;;;19.30;12.33;;;9.60;99.90;8.80;98811;;;;569267;252;24086;-77
2023/10/31 01:21:42;;;;;;;22.77;13.37;;;9.60;99.90;8.80;98813;;;;568614;252;24084;-77
2023/10/31 01:24:11;;;;;;;18.33;12.63;;;9.60;99.90;8.80;98804;;;;568251;252;24111;-78
2023/10/31 01:26:39;;;;;;;23.40;13.80;;;9.60;99.90;8.80;98793;;;;568689;252;24278;-77
2023/10/31 01:29:07;;;;;;;23.83;13.83;;;9.60;99.90;8.80;98788;;;;568626;252;24138;-77
2023/10/31 01:31:36;;;;;;;22.70;14.40;;;9.60;99.90;8.80;98776;;;;568589;252;24125;-77
2023/10/31 01:34:02;;;;;;;23.87;13.33;;;9.60;99.90;8.70;98784;;;;568602;252;24150;-77
2023/10/31 01:36:33;;;;;;;20.73;13.63;;;9.60;99.90;8.70;98779;;;;568751;252;24123;-79
2023/10/31 01:38:59;;;;;;;26.00;13.27;;;9.50;99.90;8.70;98786;;;;568437;252;24160;-77
2023/10/31 01:41:27;;;;;;;21.10;14.07;;;9.50;99.90;8.70;98788;;;;569395;251;24089;-77
2023/10/31 01:43:55;;;;;;;24.13;13.57;;;9.50;99.90;8.70;98783;;;;569965;252;24093;-77
2023/10/31 01:46:23;;;;;;;21.13;14.03;;;9.50;99.90;8.70;98786;;;;569688;252;24075;-79
2023/10/31 01:48:51;;;;;;;19.03;12.70;;;9.50;99.90;8.70;98777;;;;569602;252;24122;-77
2023/10/31 01:51:18;;;;;;;24.97;13.57;;;9.40;99.90;8.70;98772;;;;569382;252;24076;-78
2023/10/31 01:53:46;;;;;;;22.30;13.43;;;9.50;99.90;8.70;98756;;;;569080;252;24089;-78
2023/10/31 01:56:17;;;;;;;30.20;21.10;;;9.50;99.90;8.70;98746;;;;555997;252;35405;-76
2023/10/31 01:58:43;;;;;;;24.37;15.73;;;9.50;99.90;8.70;98735;;;;568971;252;24112;-78
2023/10/31 02:01:10;;;;;;;24.60;16.03;;;9.50;99.90;8.70;98730;;;;569251;252;24140;-76
2023/10/31 02:03:38;;;;;;;20.13;14.47;;;9.50;99.90;8.60;98725;;;;569461;252;24138;-76
2023/10/31 02:06:06;;;;;;;22.80;13.47;;;9.40;99.90;8.50;98716;;;;569118;252;24079;-76
2023/10/31 02:08:35;;;;;;;21.80;13.07;;;9.30;99.90;8.50;98705;;;;568944;252;24092;-76
2023/10/31 02:11:03;;;;;;;24.43;12.20;;;9.30;99.90;8.40;98701;;;;569406;252;24129;-78
2023/10/31 02:13:30;;;;;;;18.47;12.17;;;9.20;99.90;8.30;98693;;;;569143;252;24118;-76
2023/10/31 02:15:58;;;;;;;23.97;13.23;;;9.10;99.90;8.20;98685;;;;569273;252;24111;-76
2023/10/31 02:18:27;;;;;;;19.77;12.60;;;9.00;99.90;8.20;98670;;;;568839;252;24086;-75
2023/10/31 02:20:55;;;;;;;19.13;11.73;;;9.00;99.90;8.10;98669;;;;568880;252;24091;-77
2023/10/31 02:23:23;;;;;;;19.67;12.20;;;8.90;99.90;8.10;98662;;;;568764;252;24115;-77
2023/10/31 02:25:53;;;;;;;24.43;13.07;;;8.90;99.90;8.10;98668;;;;568783;252;24130;-78
2023/10/31 02:28:19;;;;;;;18.70;13.23;;;8.90;99.90;8.10;98656;;;;560118;252;24090;-75
2023/10/31 02:30:47;;;;;;;16.00;11.97;;;8.90;99.90;8.00;98647;;;;569057;252;24096;-76
2023/10/31 02:33:15;;;;;;;23.03;13.07;;;8.80;99.90;8.00;98649;;;;568921;252;24141;-76
2023/10/31 02:35:44;;;;;;;19.10;12.67;;;8.80;99.90;8.00;98638;;;;568952;252;24189;-76
2023/10/31 02:38:12;;;;;;;22.33;13.07;;;8.70;99.90;7.90;98633;;;;568787;252;24180;-77
2023/10/31 02:40:40;;;;;;;18.57;12.37;;;8.70;99.90;7.90;98626;;;;568953;252;24120;-76
2023/10/31 02:43:08;;;;;;;21.53;12.90;;;8.70;99.90;7.90;98628;;;;568793;252;24091;-76
2023/10/31 02:45:35;;;;;;;19.00;12.93;;;8.70;99.90;7.90;98627;;;;568849;252;24134;-76
2023/10/31 02:48:03;;;;;;;17.03;11.90;;;8.70;99.90;7.90;98615;;;;569141;252;24118;-77
2023/10/31 02:50:31;;;;;;;24.80;13.00;;;8.70;99.90;7.90;98605;;;;568987;252;24126;-76
2023/10/31 02:53:00;;;;;;;22.77;13.20;;;8.70;99.90;7.90;98608;;;;569380;250;24081;-77
2023/10/31 02:55:28;;;;;;;28.37;12.90;;;8.70;99.90;7.90;98600;;;;569479;252;24104;-76
2023/10/31 02:57:56;;;;;;;18.70;12.93;;;8.70;99.90;7.90;98592;;;;570204;252;24083;-77
2023/10/31 03:00:24;;;;;;;26.20;13.20;;;8.70;99.90;7.90;98591;;;;569630;252;24088;-77
2023/10/31 03:02:52;;;;;;;22.20;13.33;;;8.80;99.90;8.00;98581;;;;569463;252;24134;-76
2023/10/31 03:05:20;;;;;;;24.20;13.60;;;8.70;99.90;8.00;98583;;;;569442;252;24087;-78
2023/10/31 03:07:49;;;;;;;25.33;14.67;;;8.80;99.90;8.00;98576;;;;569505;252;24068;-77
2023/10/31 03:10:16;;;;;;;33.20;20.30;;;8.80;99.90;8.10;98571;;;;569091;252;24104;-79
2023/10/31 03:12:45;;;;;;;34.73;22.87;;;8.90;99.90;8.10;98566;;;;568743;252;24169;-80
2023/10/31 03:15:16;;;;;;;51.27;35.73;;;8.90;99.90;8.10;98553;;;;568781;252;24091;-80
2023/10/31 03:17:41;;;;;;;53.57;36.87;;;8.90;99.90;8.20;98560;;;;568411;252;24184;-78
2023/10/31 03:20:09;;;;;;;52.17;35.03;;;8.90;99.90;8.20;98548;;;;568642;252;24141;-78
2023/10/31 03:22:36;;;;;;;61.42;46.63;;;9.00;99.90;8.20;98553;;;;563779;252;35308;-77
2023/10/31 03:25:07;;;;;;;45.83;29.83;;;9.00;99.90;8.20;98523;;;;569021;252;24103;-79
2023/10/31 03:27:32;;;;;;;35.37;22.53;;;9.00;99.90;8.30;98523;;;;568168;252;24130;-76
2023/10/31 03:30:00;;;;;;;31.23;20.90;;;9.10;99.90;8.30;98523;;;;568301;252;24163;-77
2023/10/31 03:32:28;;;;;;;31.00;19.30;;;9.10;99.90;8.30;98517;;;;568276;252;24152;-77
2023/10/31 03:34:56;;;;;;;32.80;21.30;;;9.10;99.90;8.30;98504;;;;568529;252;24086;-78
2023/10/31 03:37:24;;;;;;;34.07;22.77;;;9.10;99.90;8.30;98493;;;;568502;252;24109;-77
2023/10/31 03:39:52;;;;;;;26.63;15.47;;;9.10;99.90;8.30;98493;;;;568605;252;24135;-77
2023/10/31 03:42:20;;;;;;;20.47;13.73;;;9.10;99.90;8.30;98481;;;;568539;252;24081;-78
2023/10/31 03:44:48;;;;;;;16.67;12.03;;;9.10;99.90;8.40;98477;;;;568859;252;24131;-77
2023/10/31 03:47:16;;;;;;;22.70;13.13;;;9.20;99.90;8.40;98470;;;;568618;252;24096;-77
2023/10/31 03:49:44;;;;;;;16.17;11.13;;;9.20;99.90;8.50;98468;;;;568455;252;24109;-77
2023/10/31 03:52:12;;;;;;;16.50;11.30;;;9.30;99.90;8.60;98460;;;;568591;252;24110;-77
2023/10/31 03:54:40;;;;;;;14.73;10.73;;;9.30;99.90;8.60;98462;;;;568448;252;24086;-77
2023/10/31 03:57:10;;;;;;;18.47;9.47;;;9.40;99.90;8.60;98458;;;;568803;252;24151;-76
2023/10/31 03:59:41;;;;;;;14.50;10.03;;;9.40;99.90;8.70;98450;;;;564508;252;24075;-77
2023/10/31 04:02:06;;;;;;;14.27;10.27;;;9.40;99.90;8.70;98440;;;;558525;252;24117;-77
2023/10/31 04:04:33;;;;;;;14.77;10.00;;;9.50;99.90;8.80;98440;;;;569204;251;24116;-78
2023/10/31 04:07:01;;;;;;;12.73;8.47;;;9.50;99.90;8.80;98417;;;;569873;252;24240;-78
2023/10/31 04:09:29;;;;;;;16.67;9.20;;;9.60;99.90;8.80;98416;;;;564902;252;24087;-77
2023/10/31 04:11:57;;;;;;;15.03;9.70;;;9.60;99.90;8.80;98427;;;;564604;252;24154;-76
2023/10/31 04:14:25;;;;;;;12.63;9.90;;;9.60;99.90;8.90;98412;;;;564532;252;24130;-77
2023/10/31 04:17:02;;;;;;;17.47;9.53;;;9.70;99.90;8.90;98409;;;;564394;252;24147;-76
2023/10/31 04:19:30;;;;;;;12.90;8.83;;;9.70;99.90;8.90;98398;;;;564855;252;25133;-76
2023/10/31 04:21:57;;;;;;;14.60;9.60;;;9.70;99.90;8.90;98397;;;;564360;252;24151;-77
2023/10/31 04:24:26;;;;;;;14.53;9.83;;;9.70;99.90;8.90;98385;;;;564080;252;24080;-77
2023/10/31 04:26:53;;;;;;;12.93;8.40;;;9.70;99.90;9.00;98382;;;;572566;251;24131;-76
2023/10/31 04:29:21;;;;;;;16.57;9.53;;;9.70;99.90;9.00;98376;;;;564486;252;24112;-77
2023/10/31 04:31:55;;;;;;;15.70;10.97;;;9.80;99.90;9.00;98371;;;;564672;252;24163;-76
2023/10/31 04:34:20;;;;;;;29.70;13.30;;;9.80;99.90;9.10;98371;;;;558780;252;25119;-77
2023/10/31 04:36:48;;;;;;;19.73;11.83;;;9.80;99.90;9.10;98349;;;;568823;252;24084;-77
2023/10/31 04:39:16;;;;;;;21.00;11.57;;;9.90;99.90;9.10;98358;;;;568807;252;24102;-76
2023/10/31 04:41:43;;;;;;;22.43;11.73;;;9.90;99.90;9.20;98343;;;;560257;252;24122;-76
2023/10/31 04:44:12;;;;;;;19.63;11.60;;;10.00;99.90;9.20;98342;;;;568564;252;24171;-77
2023/10/31 04:46:40;;;;;;;15.83;9.67;;;10.00;99.90;9.30;98341;;;;568437;252;25137;-77
2023/10/31 04:49:08;;;;;;;19.03;10.47;;;10.00;99.90;9.30;98339;;;;564346;252;24120;-79
2023/10/31 04:51:36;;;;;;;18.83;9.63;;;10.00;99.90;9.30;98339;;;;568755;252;24089;-78
2023/10/31 04:54:05;;;;;;;14.37;10.23;;;10.10;99.90;9.30;98334;;;;572445;251;24226;-77
2023/10/31 04:56:33;;;;;;;16.80;10.67;;;10.10;99.90;9.30;98327;;;;556279;252;24100;-79
2023/10/31 04:59:01;;;;;;;17.70;10.23;;;10.10;99.90;9.40;98328;;;;569000;252;24091;-79
2023/10/31 05:01:29;;;;;;;13.97;9.97;;;10.10;99.90;9.40;98332;;;;569619;252;24166;-77
2023/10/31 05:03:57;;;;;;;17.13;9.77;;;10.10;99.90;9.40;98327;;;;560977;252;24111;-77
2023/10/31 05:06:25;;;;;;;17.10;9.90;;;10.20;99.90;9.40;98317;;;;564018;252;24189;-77
2023/10/31 05:08:53;;;;;;;14.97;10.53;;;10.10;99.90;9.40;98306;;;;563843;252;24115;-77
2023/10/31 05:11:21;;;;;;;15.17;10.33;;;10.10;99.90;9.40;98290;;;;568114;252;24125;-77
2023/10/31 05:13:49;;;;;;;13.17;9.93;;;10.20;99.90;9.40;98280;;;;568067;252;24079;-76
2023/10/31 05:16:17;;;;;;;17.83;10.63;;;10.10;99.90;9.40;98275;;;;564347;251;25136;-76
2023/10/31 05:18:45;;;;;;;13.67;8.97;;;10.10;99.90;9.40;98267;;;;569449;252;24167;-76
2023/10/31 05:21:13;;;;;;;13.57;9.33;;;10.10;99.90;9.40;98271;;;;564734;252;24098;-76
2023/10/31 05:23:41;;;;;;;16.67;10.47;;;10.10;99.90;9.40;98259;;;;560380;252;24114;-77
2023/10/31 05:26:09;;;;;;;13.87;9.27;;;10.20;99.90;9.40;98255;;;;568795;252;24159;-78
2023/10/31 05:28:37;;;;;;;17.27;9.80;;;10.10;99.90;9.40;98262;;;;560596;252;24080;-77
2023/10/31 05:31:05;;;;;;;16.97;9.50;;;10.20;99.90;9.40;98260;;;;560678;252;24108;-77
2023/10/31 05:33:34;;;;;;;18.80;9.47;;;10.20;99.90;9.50;98255;;;;564591;252;24146;-77
2023/10/31 05:36:02;;;;;;;15.90;9.50;;;10.20;99.90;9.50;98249;;;;564473;252;24149;-78
2023/10/31 05:38:29;;;;;;;17.90;10.73;;;10.20;99.90;9.50;98258;;;;564493;252;24113;-78
2023/10/31 05:40:58;;;;;;;22.63;16.47;;;10.30;99.90;9.50;98247;;;;563959;252;35306;-77
2023/10/31 05:43:27;;;;;;;20.73;14.13;;;10.30;99.90;9.60;98244;;;;568764;252;24111;-78
2023/10/31 05:45:55;;;;;;;20.40;13.17;;;10.30;99.90;9.60;98240;;;;568768;252;24107;-77
2023/10/31 05:48:22;;;;;;;17.10;11.27;;;10.40;99.90;9.60;98234;;;;568883;252;24133;-76
2023/10/31 05:50:50;;;;;;;12.60;9.43;;;10.40;99.90;9.70;98228;;;;569132;252;24106;-77
2023/10/31 05:53:19;;;;;;;16.00;10.20;;;10.40;99.90;9.70;98223;;;;564458;252;24061;-77
2023/10/31 05:55:47;;;;;;;14.20;9.47;;;10.40;99.90;9.70;98212;;;;568806;252;24119;-77
2023/10/31 05:58:15;;;;;;;13.80;10.43;;;10.40;99.90;9.70;98210;;;;564030;252;24107;-78
2023/10/31 06:00:43;;;;;;;14.97;9.93;;;10.50;99.90;9.70;98205;;;;568279;252;24139;-78
2023/10/31 06:03:13;;;;;;;18.93;10.67;;;10.50;99.90;9.70;98196;;;;564042;252;24069;-79
2023/10/31 06:05:39;;;;;;;14.60;10.10;;;10.50;99.90;9.70;98195;;;;560108;252;24103;-77
2023/10/31 06:08:08;;;;;;;17.33;11.10;;;10.50;99.90;9.70;98189;;;;568449;252;24105;-79
2023/10/31 06:10:35;;;;;;;12.10;9.13;;;10.50;99.90;9.70;98187;;;;568552;252;24148;-77
2023/10/31 06:13:03;;;;;;;14.30;9.80;;;10.50;99.90;9.80;98181;;;;564490;252;24064;-77
2023/10/31 06:15:32;;;;;;;14.63;11.30;;;10.50;99.90;9.80;98175;;;;564281;252;24120;-77
2023/10/31 06:18:00;;;;;;;14.40;10.27;;;10.50;99.90;9.80;98178;;;;568587;252;24133;-78
2023/10/31 06:20:28;;;;;;;14.77;10.60;;;10.50;99.90;9.80;98169;;;;568525;252;24083;-77
2023/10/31 06:22:55;;;;;;;14.10;9.70;;;10.50;99.90;9.80;98158;;;;568541;252;24205;-77
2023/10/31 06:25:23;;;;;;;18.23;11.43;;;10.60;99.90;9.80;98157;;;;564129;252;24069;-77
2023/10/31 06:27:51;;;;;;;23.43;15.70;;;10.60;99.90;9.90;98149;;;;563812;251;35259;-76
2023/10/31 06:30:20;;;;;;;18.70;13.77;;;10.60;99.90;9.90;98135;;;;569374;252;24102;-76
2023/10/31 06:32:48;;;;;;;16.33;11.90;;;10.70;99.90;10.00;98143;;;;569282;252;24075;-78
2023/10/31 06:35:16;;;;;;;18.53;11.47;;;10.70;99.90;10.00;98134;;;;568902;252;24110;-77
2023/10/31 06:37:44;;;;;;;22.37;11.77;;;10.80;99.90;10.00;98126;;;;569005;252;24085;-78
2023/10/31 06:40:12;;;;;;;17.30;12.43;;;10.80;99.90;10.10;98121;;;;568863;252;24102;-78
2023/10/31 06:42:39;;;;;;;18.33;11.77;;;10.80;99.90;10.10;98117;;;;568955;252;24150;-75
2023/10/31 06:45:07;;;;;;;19.90;11.67;;;10.80;99.90;10.10;98117;;;;568730;252;24120;-78
2023/10/31 06:47:35;;;;;;;15.43;11.63;;;10.80;99.90;10.10;98106;;;;568590;252;24080;-78
2023/10/31 06:50:03;;;;;;;19.10;12.50;;;10.80;99.90;10.10;98108;;;;568702;252;24079;-77
2023/10/31 06:52:32;;;;;;;18.43;11.87;;;10.90;99.90;10.10;98105;;;;568728;252;24080;-80
2023/10/31 06:55:01;;;;;;;16.93;12.33;;;10.90;99.90;10.10;98103;;;;568943;252;24115;-80
2023/10/31 06:57:30;;;;;;;18.77;12.03;;;10.80;99.90;10.10;98093;;;;568666;252;24191;-79
2023/10/31 06:59:58;;;;;;;18.00;11.40;;;10.80;99.90;10.10;98091;;;;569190;252;24071;-79
2023/10/31 07:02:26;;;;;;;18.70;11.30;;;10.80;99.90;10.10;98097;;;;568813;252;24097;-76
2023/10/31 07:04:54;;;;;;;23.63;12.20;;;10.80;99.90;10.10;98093;;;;568700;252;24133;-78
2023/10/31 07:07:22;;;;;;;19.63;12.43;;;10.80;99.90;10.10;98090;;;;568543;252;24087;-77
2023/10/31 07:09:50;;;;;;;23.50;12.57;;;10.80;99.90;10.10;98088;;;;568399;252;24088;-77
2023/10/31 07:12:21;;;;;;;22.70;13.23;;;10.90;99.90;10.10;98090;;;;568644;252;24223;-79
2023/10/31 07:14:46;;;;;;;18.80;13.70;;;10.90;99.90;10.10;98081;;;;568260;252;25138;-78
2023/10/31 07:17:13;;;;;;;19.57;13.77;;;10.90;99.90;10.20;98080;;;;568541;252;26275;-79
2023/10/31 07:19:41;;;;;;;22.60;13.97;;;10.90;99.90;10.20;98079;;;;568677;252;25169;-79
2023/10/31 07:22:09;;;;;;;27.87;14.37;;;10.90;99.90;10.20;98075;;;;568598;252;24153;-80
2023/10/31 07:24:37;;;;;;;19.10;13.77;;;10.90;99.90;10.20;98076;;;;568659;252;24218;-77
2023/10/31 07:27:05;;;;;;;22.33;13.13;;;10.90;99.90;10.20;98073;;;;568651;252;24117;-78
2023/10/31 07:29:33;;;;;;;24.27;15.30;;;10.90;99.90;10.20;98069;;;;568444;252;24098;-76
2023/10/31 07:32:01;;;;;;;22.10;14.20;;;10.90;99.90;10.20;98064;;;;568259;252;24162;-79
2023/10/31 07:34:29;;;;;;;21.37;14.43;;;10.90;99.90;10.20;98058;;;;560239;252;24155;-77
2023/10/31 07:36:57;;;;;;;21.73;14.90;;;10.90;99.90;10.20;98058;;;;559872;252;24130;-78
2023/10/31 07:39:25;;;;;;;23.10;13.67;;;10.90;99.90;10.20;98055;;;;568758;251;24089;-77
2023/10/31 07:41:53;;;;;;;25.23;15.53;;;10.90;99.90;10.20;98052;;;;569412;252;24229;-77
2023/10/31 07:44:21;;;;;;;23.87;14.93;;;10.90;99.90;10.30;98051;;;;569127;252;24084;-77
2023/10/31 07:46:48;;;;;;;26.33;15.53;;;11.00;99.90;10.30;98051;;;;569337;252;24095;-76
2023/10/31 07:49:17;;;;;;;22.07;14.60;;;10.90;99.90;10.20;98039;;;;569288;252;24165;-79
2023/10/31 07:51:44;;;;;;;25.40;15.73;;;10.90;99.90;10.30;98036;;;;568972;252;24096;-78
2023/10/31 07:54:12;;;;;;;27.33;16.93;;;11.00;99.90;10.30;98033;;;;569214;252;24085;-80
2023/10/31 07:56:40;;;;;;;18.77;14.03;;;11.00;99.90;10.40;98041;;;;569005;252;24121;-78
2023/10/31 07:59:10;;;;;;;23.57;15.83;;;11.00;99.90;10.40;98039;;;;569214;252;24165;-77
2023/10/31 08:01:38;;;;;;;21.07;15.83;;;11.10;99.90;10.40;98030;;;;569258;252;25324;-75
2023/10/31 08:04:09;;;;;;;26.47;15.17;;;11.10;99.90;10.40;98015;;;;568520;252;24166;-77
2023/10/31 08:06:34;;;;;;;20.80;13.97;;;11.10;99.90;10.50;98013;;;;568353;252;24075;-82
2023/10/31 08:09:01;;;;;;;18.57;13.70;;;11.10;99.90;10.50;98004;;;;568507;252;24204;-83
2023/10/31 08:11:29;;;;;;;24.47;15.03;;;11.20;99.90;10.50;98011;;;;569039;252;24107;-77
2023/10/31 08:13:57;;;;;;;21.87;14.43;;;11.20;99.90;10.60;98008;;;;569134;252;24122;-79
2023/10/31 08:16:25;;;;;;;23.27;15.27;;;11.20;99.90;10.60;98005;;;;568911;252;24135;-78
2023/10/31 08:18:53;;;;;;;22.70;15.13;;;11.30;99.90;10.60;97999;;;;568940;252;25267;-81
2023/10/31 08:21:21;;;;;;;19.93;13.50;;;11.30;99.90;10.60;97987;;;;568861;252;24103;-78
2023/10/31 08:23:49;;;;;;;22.70;13.33;;;11.30;99.90;10.60;97984;;;;569109;252;24147;-79
2023/10/31 08:26:17;;;;;;;27.17;15.33;;;11.30;99.90;10.70;97979;;;;560887;252;24086;-78
2023/10/31 08:28:45;;;;;;;18.40;13.30;;;11.40;99.90;10.70;97968;;;;569515;252;24098;-79
2023/10/31 08:31:13;;;;;;;17.90;13.47;;;11.40;99.90;10.80;97967;;;;569300;252;24127;-75
2023/10/31 08:33:40;;;;;;;29.67;14.97;;;11.40;99.90;10.80;97970;;;;569180;252;24108;-78
2023/10/31 08:36:08;;;;;;;29.63;20.87;;;11.40;99.90;10.70;97966;;;;564226;252;35308;-76
2023/10/31 08:38:36;;;;;;;25.50;17.33;;;11.40;99.90;10.70;97954;;;;568665;252;24071;-77
2023/10/31 08:41:04;;;;;;;28.33;17.07;;;11.40;99.90;10.80;97955;;;;568540;252;24139;-75
2023/10/31 08:43:35;;;;;;;23.70;15.73;;;11.50;99.90;10.80;97953;;;;568492;252;24115;-77
2023/10/31 08:46:00;;;;;;;27.13;16.30;;;11.50;99.90;10.80;97958;;;;559963;252;24136;-77
2023/10/31 08:48:28;;;;;;;24.97;16.00;;;11.50;99.90;10.80;97949;;;;568438;252;24092;-78
2023/10/31 08:50:56;;;;;;;25.47;15.17;;;11.50;99.90;10.90;97952;;;;569034;251;24099;-77
2023/10/31 08:53:24;;;;;;;20.33;14.97;;;11.60;99.90;10.90;97947;;;;569590;252;24182;-77
2023/10/31 08:55:52;;;;;;;23.23;14.63;;;11.60;99.90;11.00;97942;;;;569318;252;24088;-78
2023/10/31 08:58:20;;;;;;;24.37;15.70;;;11.70;99.90;11.00;97937;;;;569305;252;24126;-76
2023/10/31 09:00:48;;;;;;;20.73;15.53;;;11.70;99.90;11.10;97943;;;;568980;252;24114;-77
2023/10/31 09:03:16;;;;;;;21.23;15.23;;;11.70;99.90;11.10;97941;;;;569468;252;24100;-79
2023/10/31 09:05:44;;;;;;;21.27;14.13;;;11.80;99.90;11.20;97940;;;;569108;252;24074;-77
2023/10/31 09:08:11;;;;;;;27.30;23.03;;;11.80;99.90;11.20;97939;;;;564025;252;35286;-77
2023/10/31 09:10:42;;;;;;;23.17;16.63;;;11.90;99.90;11.30;97933;;;;568853;252;24157;-77
2023/10/31 09:13:11;;;;;;;24.17;16.90;;;11.90;99.90;11.30;97929;;;;568493;252;24083;-78
2023/10/31 09:15:36;;;;;;;23.90;15.43;;;11.90;99.90;11.30;97938;;;;568511;252;24080;-78
2023/10/31 09:18:08;;;;;;;21.90;14.20;;;11.90;99.90;11.20;97941;;;;568811;252;24091;-77
2023/10/31 09:20:32;;;;;;;22.93;15.90;;;11.90;99.90;11.30;97940;;;;568754;251;24099;-78
2023/10/31 09:23:00;;;;;;;23.50;14.07;;;11.90;99.90;11.30;97936;;;;569248;252;24066;-77
2023/10/31 09:25:28;;;;;;;26.77;14.67;;;11.90;99.90;11.30;97940;;;;569216;252;24074;-77
2023/10/31 09:27:58;;;;;;;19.27;14.17;;;11.90;99.90;11.30;97939;;;;569355;252;24055;-76
2023/10/31 09:30:23;;;;;;;27.57;15.23;;;12.00;99.90;11.20;97925;;;;569016;252;24108;-78
2023/10/31 09:32:52;;;;;;;21.30;15.30;;;11.90;99.90;11.30;97927;;;;569832;252;24129;-79
2023/10/31 09:35:19;;;;;;;21.77;16.13;;;11.90;99.90;11.30;97926;;;;569702;252;24063;-77
2023/10/31 09:37:48;;;;;;;21.30;16.03;;;11.90;99.90;11.30;97922;;;;569554;252;24108;-77
2023/10/31 09:40:15;;;;;;;21.47;14.13;;;11.90;99.90;11.30;97917;;;;569407;252;24158;-77
2023/10/31 09:42:43;;;;;;;18.47;14.27;;;11.90;99.90;11.30;97921;;;;560719;252;24099;-77
2023/10/31 09:45:11;;;;;;;22.53;14.17;;;12.00;99.90;11.30;97921;;;;561051;252;24145;-78
2023/10/31 09:47:42;;;;;;;23.63;14.30;;;12.00;99.90;11.30;97925;;;;569848;252;24151;-78
2023/10/31 09:50:10;;;;;;;24.30;14.47;;;12.00;99.90;11.30;97919;;;;560866;252;24086;-77
2023/10/31 09:52:38;;;;;;;16.93;12.03;;;12.00;99.90;11.30;97914;;;;561171;252;24093;-76
2023/10/31 09:55:05;;;;;;;20.87;13.73;;;12.00;99.90;11.40;97913;;;;561048;252;24095;-78
2023/10/31 09:57:33;;;;;;;19.30;13.43;;;12.00;99.90;11.50;97908;;;;561281;252;24101;-79
2023/10/31 09:59:58;;;;;;;18.40;13.77;;;12.10;99.90;11.50;97909;;;;569450;252;24126;-77
2023/10/31 10:02:26;;;;;;;19.93;13.93;;;12.10;99.90;11.60;97907;;;;561941;251;24078;-78
2023/10/31 10:04:58;;;;;;;18.80;12.97;;;12.20;99.90;11.70;97902;;;;570614;252;24135;-80
2023/10/31 10:07:26;;;;;;;20.83;14.57;;;12.30;99.90;11.70;97899;;;;561473;252;24194;-79
2023/10/31 10:09:50;;;;;;;19.23;13.50;;;12.40;99.90;11.80;97899;;;;569572;252;24072;-83
2023/10/31 10:12:22;;;;;;;14.50;11.30;;;12.50;99.90;11.80;97899;;;;569725;252;24090;-84
2023/10/31 10:14:46;;;;;;;14.93;12.17;;;12.50;99.90;11.80;97897;;;;560815;252;24101;-78
2023/10/31 10:17:27;;;;;;;17.10;12.27;;;12.50;99.90;11.90;97897;;;;569461;252;24146;-80
2023/10/31 10:20:10;;;;;;;16.93;12.50;;;12.60;99.90;12.00;97898;;;;560747;252;24145;-85
2023/10/31 10:22:42;;;;;;;14.77;10.47;;;12.60;99.90;12.00;97903;;;;560811;252;24159;-77
2023/10/31 10:25:09;;;;;;;13.00;10.10;;;12.70;99.90;12.10;97891;;;;560998;252;24088;-81
2023/10/31 10:27:41;;;;;;;13.87;10.37;;;12.80;99.90;12.20;97898;;;;560784;252;24138;-80
2023/10/31 10:30:06;;;;;;;15.03;10.37;;;12.80;99.90;12.20;97896;;;;560326;252;24137;-81
2023/10/31 10:32:34;;;;;;;13.23;10.03;;;12.80;99.90;12.20;97895;;;;560880;252;24171;-86
2023/10/31 10:35:02;;;;;;;14.20;9.60;;;12.80;99.90;12.20;97892;;;;569592;252;24108;-84
2023/10/31 10:37:30;;;;;;;10.13;8.87;;;12.90;99.90;12.30;97899;;;;573006;251;24103;-85
2023/10/31 10:39:59;;;;;;;11.70;9.27;;;12.90;99.90;12.30;97893;;;;555501;252;24099;-78
2023/10/31 10:42:34;;;;;;;8.83;7.97;;;13.00;99.90;12.40;97897;;;;560187;252;24096;-83
2023/10/31 10:45:09;;;;;;;9.90;7.80;;;13.00;99.90;12.50;97890;;;;561000;249;24079;-80
2023/10/31 10:47:33;;;;;;;10.90;7.57;;;13.10;99.90;12.70;97885;;;;569806;252;24162;-80
2023/10/31 10:50:03;;;;;;;7.03;6.40;;;13.30;99.90;12.90;97901;;;;559971;252;24109;-80
2023/10/31 10:52:52;;;;;;;9.33;7.17;;;13.50;99.90;12.90;97899;;;;559889;252;24149;-81
2023/10/31 10:55:23;;;;;;;6.70;5.80;;;13.50;99.90;13.00;97894;;;;564166;252;24083;-78
2023/10/31 10:58:06;;;;;;;10.37;6.63;;;13.60;99.90;13.00;97892;;;;560189;252;24122;-78
2023/10/31 11:00:34;;;;;;;6.60;6.00;;;13.70;99.90;13.10;97902;;;;559927;252;24078;-80
2023/10/31 11:03:02;;;;;;;5.73;5.13;;;13.70;99.90;13.10;97893;;;;560142;252;24080;-77
2023/10/31 11:05:33;;;;;;;6.20;5.60;;;13.70;99.90;13.10;97900;;;;560054;252;24105;-80
2023/10/31 11:08:01;;;;;;;5.93;5.33;;;13.70;99.90;13.00;97897;;;;559791;252;24121;-77
2023/10/31 11:10:32;;;;;;;6.43;5.03;;;13.70;99.90;13.00;97888;;;;559689;252;24086;-79
2023/10/31 11:12:57;;;;;;;6.90;6.20;;;13.70;99.90;13.10;97895;;;;571286;251;24158;-76
2023/10/31 11:15:24;;;;;;;6.13;5.53;;;13.70;99.90;13.20;97882;;;;565209;252;24096;-77